Flugmeteorologie

  • METAR LHSM 250745Z 18011KT CAVOK 18/12 Q1018 NOSIG=
  • METAR LHSM 250715Z 18012KT CAVOK 17/12 Q1018 NOSIG=
  • METAR LHSM 250645Z 17012KT CAVOK 17/12 Q1017 NOSIG=
  • METAR LHSM 250615Z 16012KT CAVOK 16/12 Q1017=
  • METAR LHSM 250545Z 16010KT CAVOK 16/12 Q1017=

  • TAF LHSM 250515Z 2506/2515 16008KT CAVOK
  • TAF LHSM 241115Z 2412/2421 18012KT 9999 SCT045
  • TAF LHSM 240815Z 2409/2418 16008KT 9999 SCT030
  • TAF LHSM 240515Z 2406/2415 08005KT 9999 SCT045 BKN065
  • TAF LHSM 231115Z 2312/2321 12014G25KT 9999 BKN025 BKN070